sensor_id;sensor_type;location;lat;lon;timestamp;pressure;altitude;pressure_sealevel;temperature;humidity
9225;BME280;4647;48.072;11.616;2023-04-16T06:06:25;95196.44;;;5.96;79.25
9225;BME280;4647;48.072;11.616;2023-04-16T06:08:54;95171.00;;;5.76;79.16
9225;BME280;4647;48.072;11.616;2023-04-16T06:11:23;95197.59;;;5.95;79.22
9225;BME280;4647;48.072;11.616;2023-04-16T06:13:51;95197.59;;;6.13;78.75
9225;BME280;4647;48.072;11.616;2023-04-16T06:16:20;95200.28;;;6.02;79.13
9225;BME280;4647;48.072;11.616;2023-04-16T06:18:48;95200.28;;;6.13;78.42
9225;BME280;4647;48.072;11.616;2023-04-16T06:21:17;95196.06;;;6.08;79.07
9225;BME280;4647;48.072;11.616;2023-04-16T06:23:48;95196.47;;;6.18;77.96
9225;BME280;4647;48.072;11.616;2023-04-16T06:26:16;95201.84;;;6.32;78.03
9225;BME280;4647;48.072;11.616;2023-04-16T06:28:45;95201.84;;;6.32;77.28
9225;BME280;4647;48.072;11.616;2023-04-16T06:39:23;95154.16;;;6.57;75.86
9225;BME280;4647;48.072;11.616;2023-04-16T06:41:52;95202.94;;;7.05;76.04
9225;BME280;4647;48.072;11.616;2023-04-16T06:44:20;95217.91;;;7.24;75.01
9225;BME280;4647;48.072;11.616;2023-04-16T06:46:49;95192.13;;;7.23;74.43
9225;BME280;4647;48.072;11.616;2023-04-16T06:49:17;95182.06;;;7.31;74.01
9225;BME280;4647;48.072;11.616;2023-04-16T06:51:46;95222.19;;;7.15;74.50
9225;BME280;4647;48.072;11.616;2023-04-16T06:54:14;95222.16;;;7.18;74.17
9225;BME280;4647;48.072;11.616;2023-04-16T06:56:46;95214.09;;;7.11;74.33
9225;BME280;4647;48.072;11.616;2023-04-16T07:05:01;95220.28;;;6.90;74.84
9225;BME280;4647;48.072;11.616;2023-04-16T07:07:42;95231.03;;;7.15;74.56
9225;BME280;4647;48.072;11.616;2023-04-16T07:10:10;95216.41;;;7.02;74.99
9225;BME280;4647;48.072;11.616;2023-04-16T07:12:41;95211.03;;;7.02;74.87
9225;BME280;4647;48.072;11.616;2023-04-16T07:15:10;95232.97;;;7.11;74.50
9225;BME280;4647;48.072;11.616;2023-04-16T07:17:38;95208.38;;;6.91;75.46
9225;BME280;4647;48.072;11.616;2023-04-16T07:20:10;95230.63;;;7.06;76.09
9225;BME280;4647;48.072;11.616;2023-04-16T07:22:39;95235.25;;;7.13;74.89
9225;BME280;4647;48.072;11.616;2023-04-16T07:25:08;95228.28;;;7.29;75.35
9225;BME280;4647;48.072;11.616;2023-04-16T07:27:36;95234.28;;;7.73;73.58
9225;BME280;4647;48.072;11.616;2023-04-16T07:30:09;95232.34;;;7.84;72.77
9225;BME280;4647;48.072;11.616;2023-04-16T07:32:37;95231.53;;;7.90;72.67
9225;BME280;4647;48.072;11.616;2023-04-16T07:35:06;95241.41;;;8.15;72.52
9225;BME280;4647;48.072;11.616;2023-04-16T07:37:35;95231.38;;;8.19;71.65
9225;BME280;4647;48.072;11.616;2023-04-16T07:40:04;95240.88;;;8.41;71.22
9225;BME280;4647;48.072;11.616;2023-04-16T07:42:33;95243.69;;;8.20;71.38
9225;BME280;4647;48.072;11.616;2023-04-16T07:45:02;95246.88;;;8.00;72.06
9225;BME280;4647;48.072;11.616;2023-04-16T07:47:33;95229.31;;;7.67;71.77
9225;BME280;4647;48.072;11.616;2023-04-16T07:50:01;95250.59;;;7.41;73.37
9225;BME280;4647;48.072;11.616;2023-04-16T07:52:30;95250.09;;;7.70;73.02
9225;BME280;4647;48.072;11.616;2023-04-16T07:54:58;95255.13;;;7.65;72.23
9225;BME280;4647;48.072;11.616;2023-04-16T07:57:27;95254.38;;;7.61;72.37
9225;BME280;4647;48.072;11.616;2023-04-16T07:59:55;95249.78;;;7.47;72.62
9225;BME280;4647;48.072;11.616;2023-04-16T08:02:25;95257.88;;;7.51;73.32
9225;BME280;4647;48.072;11.616;2023-04-16T08:04:56;95255.91;;;7.62;72.77
9225;BME280;4647;48.072;11.616;2023-04-16T08:07:24;95236.63;;;7.70;72.56
9225;BME280;4647;48.072;11.616;2023-04-16T08:09:53;95261.19;;;7.90;72.03
9225;BME280;4647;48.072;11.616;2023-04-16T08:12:21;95257.75;;;7.79;72.58
9225;BME280;4647;48.072;11.616;2023-04-16T08:14:50;95242.34;;;7.83;72.05
9225;BME280;4647;48.072;11.616;2023-04-16T08:17:18;95264.69;;;7.80;72.57
9225;BME280;4647;48.072;11.616;2023-04-16T08:19:46;95263.84;;;7.97;72.14
9225;BME280;4647;48.072;11.616;2023-04-16T08:22:18;95268.78;;;8.17;71.40
9225;BME280;4647;48.072;11.616;2023-04-16T08:24:46;95263.06;;;8.08;70.73
9225;BME280;4647;48.072;11.616;2023-04-16T08:27:15;95267.97;;;8.20;70.06
9225;BME280;4647;48.072;11.616;2023-04-16T08:29:43;95264.41;;;8.44;69.77
9225;BME280;4647;48.072;11.616;2023-04-16T08:32:11;95266.78;;;8.35;69.75
9225;BME280;4647;48.072;11.616;2023-04-16T08:34:40;95268.06;;;8.72;68.36
9225;BME280;4647;48.072;11.616;2023-04-16T08:37:09;95265.06;;;8.63;68.72
9225;BME280;4647;48.072;11.616;2023-04-16T08:39:40;95267.31;;;8.68;68.26
9225;BME280;4647;48.072;11.616;2023-04-16T08:42:12;95273.50;;;9.13;66.96
9225;BME280;4647;48.072;11.616;2023-04-16T08:44:46;95251.63;;;9.00;67.16
9225;BME280;4647;48.072;11.616;2023-04-16T08:47:15;95283.13;;;9.59;65.96
9225;BME280;4647;48.072;11.616;2023-04-16T08:49:44;95279.69;;;9.54;66.74
9225;BME280;4647;48.072;11.616;2023-04-16T08:52:14;95282.56;;;9.74;65.76
9225;BME280;4647;48.072;11.616;2023-04-16T08:54:56;95290.28;;;9.76;65.56
9225;BME280;4647;48.072;11.616;2023-04-16T08:57:35;95285.19;;;10.12;63.79
9225;BME280;4647;48.072;11.616;2023-04-16T09:00:08;95280.34;;;10.30;63.19
9225;BME280;4647;48.072;11.616;2023-04-16T09:02:37;95290.59;;;10.46;63.03
9225;BME280;4647;48.072;11.616;2023-04-16T09:05:06;95291.03;;;10.95;61.06
9225;BME280;4647;48.072;11.616;2023-04-16T09:07:36;95301.38;;;10.76;61.24
9225;BME280;4647;48.072;11.616;2023-04-16T09:10:09;95301.16;;;10.64;61.74
9225;BME280;4647;48.072;11.616;2023-04-16T09:12:39;95301.44;;;10.46;61.91
9225;BME280;4647;48.072;11.616;2023-04-16T09:15:09;95294.72;;;10.54;61.79
9225;BME280;4647;48.072;11.616;2023-04-16T09:17:38;95287.19;;;10.42;61.95
9225;BME280;4647;48.072;11.616;2023-04-16T09:20:08;95299.38;;;10.81;61.09
9225;BME280;4647;48.072;11.616;2023-04-16T09:22:37;95307.72;;;10.66;61.10
9225;BME280;4647;48.072;11.616;2023-04-16T09:25:09;95306.00;;;11.26;60.01
9225;BME280;4647;48.072;11.616;2023-04-16T09:27:37;95306.72;;;11.74;58.93
9225;BME280;4647;48.072;11.616;2023-04-16T09:30:21;95298.31;;;11.68;58.89
9225;BME280;4647;48.072;11.616;2023-04-16T09:33:10;95308.53;;;11.60;58.21
9225;BME280;4647;48.072;11.616;2023-04-16T09:35:44;95300.47;;;11.77;58.99
9225;BME280;4647;48.072;11.616;2023-04-16T09:38:14;95303.78;;;11.88;57.29
9225;BME280;4647;48.072;11.616;2023-04-16T09:40:45;95289.59;;;11.57;57.47
9225;BME280;4647;48.072;11.616;2023-04-16T09:43:15;95306.56;;;11.84;58.26
9225;BME280;4647;48.072;11.616;2023-04-16T09:45:48;95303.81;;;11.64;58.23
9225;BME280;4647;48.072;11.616;2023-04-16T09:48:27;95299.28;;;11.78;57.71
9225;BME280;4647;48.072;11.616;2023-04-16T09:50:57;95300.59;;;11.69;57.97
9225;BME280;4647;48.072;11.616;2023-04-16T09:53:27;95304.56;;;11.65;58.17
9225;BME280;4647;48.072;11.616;2023-04-16T09:56:00;95299.63;;;11.60;58.33
9225;BME280;4647;48.072;11.616;2023-04-16T09:58:28;95307.22;;;11.68;58.67
9225;BME280;4647;48.072;11.616;2023-04-16T10:01:00;95312.81;;;11.81;57.73
9225;BME280;4647;48.072;11.616;2023-04-16T10:03:29;95309.38;;;11.34;59.23
9225;BME280;4647;48.072;11.616;2023-04-16T10:05:59;95313.97;;;11.14;59.38
9225;BME280;4647;48.072;11.616;2023-04-16T10:08:28;95317.16;;;11.32;58.98
9225;BME280;4647;48.072;11.616;2023-04-16T10:10:59;95322.03;;;10.36;61.67
9225;BME280;4647;48.072;11.616;2023-04-16T10:13:28;95324.19;;;10.18;62.71
9225;BME280;4647;48.072;11.616;2023-04-16T10:15:56;95290.47;;;10.26;61.87
9225;BME280;4647;48.072;11.616;2023-04-16T10:18:25;95321.56;;;10.72;60.65
9225;BME280;4647;48.072;11.616;2023-04-16T10:20:54;95325.81;;;10.73;61.11
9225;BME280;4647;48.072;11.616;2023-04-16T10:23:24;95311.91;;;10.44;62.46
9225;BME280;4647;48.072;11.616;2023-04-16T10:25:53;95320.72;;;10.21;62.38
9225;BME280;4647;48.072;11.616;2023-04-16T10:28:24;95321.09;;;10.16;63.35
9225;BME280;4647;48.072;11.616;2023-04-16T10:30:55;95320.38;;;10.46;62.48
9225;BME280;4647;48.072;11.616;2023-04-16T10:33:26;95321.16;;;10.12;62.83
9225;BME280;4647;48.072;11.616;2023-04-16T10:36:06;95320.47;;;10.05;63.06
9225;BME280;4647;48.072;11.616;2023-04-16T10:38:37;95305.94;;;9.92;64.68
9225;BME280;4647;48.072;11.616;2023-04-16T10:41:06;95305.94;;;9.92;64.87
9225;BME280;4647;48.072;11.616;2023-04-16T10:43:43;95310.13;;;10.30;63.24
9225;BME280;4647;48.072;11.616;2023-04-16T10:46:19;95313.16;;;10.36;62.96
9225;BME280;4647;48.072;11.616;2023-04-16T10:48:50;95280.72;;;10.32;62.44
9225;BME280;4647;48.072;11.616;2023-04-16T10:51:26;95324.16;;;10.52;62.37
9225;BME280;4647;48.072;11.616;2023-04-16T10:53:56;95323.31;;;10.59;62.12
9225;BME280;4647;48.072;11.616;2023-04-16T10:56:25;95323.31;;;10.59;61.80
9225;BME280;4647;48.072;11.616;2023-04-16T10:58:58;95324.66;;;11.24;60.66
9225;BME280;4647;48.072;11.616;2023-04-16T11:01:31;95326.69;;;11.63;58.88
9225;BME280;4647;48.072;11.616;2023-04-16T11:04:01;95331.94;;;11.74;58.46
9225;BME280;4647;48.072;11.616;2023-04-16T11:07:00;95332.97;;;12.23;56.77
9225;BME280;4647;48.072;11.616;2023-04-16T11:09:43;95325.81;;;12.49;55.35
9225;BME280;4647;48.072;11.616;2023-04-16T11:12:13;95326.69;;;12.26;55.82
9225;BME280;4647;48.072;11.616;2023-04-16T11:14:47;95334.50;;;11.38;58.27
9225;BME280;4647;48.072;11.616;2023-04-16T11:17:15;95336.97;;;10.79;60.28
9225;BME280;4647;48.072;11.616;2023-04-16T11:19:45;95324.00;;;10.63;60.36
9225;BME280;4647;48.072;11.616;2023-04-16T11:22:16;95337.09;;;10.41;61.45
9225;BME280;4647;48.072;11.616;2023-04-16T11:24:45;95341.41;;;10.35;62.49
9225;BME280;4647;48.072;11.616;2023-04-16T11:27:14;95334.38;;;10.41;62.78
9225;BME280;4647;48.072;11.616;2023-04-16T11:29:45;95343.50;;;10.54;61.32
9225;BME280;4647;48.072;11.616;2023-04-16T11:32:23;95344.84;;;10.69;60.43
9225;BME280;4647;48.072;11.616;2023-04-16T11:34:51;95341.72;;;10.71;61.07
9225;BME280;4647;48.072;11.616;2023-04-16T11:37:21;95343.84;;;10.83;60.60
9225;BME280;4647;48.072;11.616;2023-04-16T11:39:58;95328.50;;;10.12;61.53
9225;BME280;4647;48.072;11.616;2023-04-16T11:42:29;95324.22;;;10.75;60.29
9225;BME280;4647;48.072;11.616;2023-04-16T11:45:00;95325.34;;;11.28;58.01
9225;BME280;4647;48.072;11.616;2023-04-16T11:47:29;95343.88;;;12.00;56.49
9225;BME280;4647;48.072;11.616;2023-04-16T11:50:14;95339.38;;;12.13;56.44
9225;BME280;4647;48.072;11.616;2023-04-16T11:52:43;95348.50;;;11.56;57.03
9225;BME280;4647;48.072;11.616;2023-04-16T11:55:11;95320.19;;;10.87;58.51
9225;BME280;4647;48.072;11.616;2023-04-16T11:57:40;95349.53;;;11.19;58.44
9225;BME280;4647;48.072;11.616;2023-04-16T12:00:13;95349.25;;;11.37;58.33
9225;BME280;4647;48.072;11.616;2023-04-16T12:02:42;95354.56;;;11.44;58.49
9225;BME280;4647;48.072;11.616;2023-04-16T12:05:27;95358.06;;;11.18;59.50
9225;BME280;4647;48.072;11.616;2023-04-16T12:07:56;95354.44;;;11.01;59.50
9225;BME280;4647;48.072;11.616;2023-04-16T12:10:25;95333.25;;;10.69;59.91
9225;BME280;4647;48.072;11.616;2023-04-16T12:12:55;95361.47;;;10.41;61.08
9225;BME280;4647;48.072;11.616;2023-04-16T12:15:45;95352.66;;;10.33;61.74
9225;BME280;4647;48.072;11.616;2023-04-16T12:18:17;95354.22;;;10.31;61.98
9225;BME280;4647;48.072;11.616;2023-04-16T12:20:46;95351.53;;;10.31;61.80
9225;BME280;4647;48.072;11.616;2023-04-16T12:23:22;95352.66;;;10.33;61.85
9225;BME280;4647;48.072;11.616;2023-04-16T12:25:51;95357.00;;;10.27;62.64
9225;BME280;4647;48.072;11.616;2023-04-16T12:28:27;95359.13;;;10.43;62.53
9225;BME280;4647;48.072;11.616;2023-04-16T12:30:58;95375.41;;;10.39;62.59
9225;BME280;4647;48.072;11.616;2023-04-16T12:33:27;95364.78;;;10.22;63.28
9225;BME280;4647;48.072;11.616;2023-04-16T12:38:59;95359.88;;;10.09;63.78
9225;BME280;4647;48.072;11.616;2023-04-16T12:41:28;95361.75;;;10.12;63.83
9225;BME280;4647;48.072;11.616;2023-04-16T12:44:07;95358.63;;;10.21;64.07
9225;BME280;4647;48.072;11.616;2023-04-16T12:46:39;95358.47;;;10.32;63.24
9225;BME280;4647;48.072;11.616;2023-04-16T12:49:09;95361.75;;;10.50;62.85
9225;BME280;4647;48.072;11.616;2023-04-16T12:51:38;95366.09;;;10.40;62.83
9225;BME280;4647;48.072;11.616;2023-04-16T12:54:06;95367.56;;;10.49;62.15
9225;BME280;4647;48.072;11.616;2023-04-16T12:56:35;95370.69;;;10.47;62.50
9225;BME280;4647;48.072;11.616;2023-04-16T12:59:03;95358.34;;;10.42;62.71
9225;BME280;4647;48.072;11.616;2023-04-16T13:01:34;95368.31;;;10.49;62.36
9225;BME280;4647;48.072;11.616;2023-04-16T13:04:05;95359.56;;;10.38;62.70
9225;BME280;4647;48.072;11.616;2023-04-16T13:06:34;95373.34;;;10.13;63.74
9225;BME280;4647;48.072;11.616;2023-04-16T13:09:03;95370.22;;;10.22;64.20
9225;BME280;4647;48.072;11.616;2023-04-16T13:11:31;95367.81;;;10.27;63.70
9225;BME280;4647;48.072;11.616;2023-04-16T13:14:00;95358.41;;;10.01;64.82
9225;BME280;4647;48.072;11.616;2023-04-16T13:16:28;95364.25;;;10.00;65.23
9225;BME280;4647;48.072;11.616;2023-04-16T13:18:56;95371.56;;;10.03;65.05
9225;BME280;4647;48.072;11.616;2023-04-16T13:21:27;95371.94;;;9.64;65.98
9225;BME280;4647;48.072;11.616;2023-04-16T13:23:56;95367.91;;;9.38;66.98
9225;BME280;4647;48.072;11.616;2023-04-16T13:26:25;95375.91;;;9.52;66.66
9225;BME280;4647;48.072;11.616;2023-04-16T13:28:53;95379.44;;;9.49;67.26
9225;BME280;4647;48.072;11.616;2023-04-16T13:31:21;95374.56;;;9.30;67.82
9225;BME280;4647;48.072;11.616;2023-04-16T13:33:50;95372.41;;;9.55;67.58
9225;BME280;4647;48.072;11.616;2023-04-16T13:36:19;95379.59;;;9.72;67.09
9225;BME280;4647;48.072;11.616;2023-04-16T13:38:49;95376.59;;;10.01;66.36
9225;BME280;4647;48.072;11.616;2023-04-16T13:41:18;95380.44;;;10.03;65.88
9225;BME280;4647;48.072;11.616;2023-04-16T13:43:46;95376.16;;;10.06;66.21
9225;BME280;4647;48.072;11.616;2023-04-16T13:46:14;95378.50;;;10.04;66.10
9225;BME280;4647;48.072;11.616;2023-04-16T13:48:43;95380.94;;;10.29;65.22
9225;BME280;4647;48.072;11.616;2023-04-16T13:51:11;95383.81;;;10.49;64.38
9225;BME280;4647;48.072;11.616;2023-04-16T13:53:40;95382.13;;;10.89;62.84
9225;BME280;4647;48.072;11.616;2023-04-16T13:56:11;95383.75;;;10.83;62.40
9225;BME280;4647;48.072;11.616;2023-04-16T13:58:40;95380.13;;;10.93;62.83
9225;BME280;4647;48.072;11.616;2023-04-16T14:01:08;95381.19;;;10.99;62.23
9225;BME280;4647;48.072;11.616;2023-04-16T14:03:37;95378.13;;;11.24;61.07
9225;BME280;4647;48.072;11.616;2023-04-16T14:06:06;95391.78;;;11.17;60.88
9225;BME280;4647;48.072;11.616;2023-04-16T14:08:35;95384.91;;;11.12;60.44
9225;BME280;4647;48.072;11.616;2023-04-16T14:11:03;95376.38;;;10.83;61.88
9225;BME280;4647;48.072;11.616;2023-04-16T14:13:36;95384.78;;;10.92;61.92
9225;BME280;4647;48.072;11.616;2023-04-16T14:16:05;95379.56;;;11.05;61.50
9225;BME280;4647;48.072;11.616;2023-04-16T14:18:33;95382.59;;;10.53;62.89
9225;BME280;4647;48.072;11.616;2023-04-16T14:21:05;95388.41;;;10.82;62.43
9225;BME280;4647;48.072;11.616;2023-04-16T14:23:33;95377.16;;;10.84;61.68
9225;BME280;4647;48.072;11.616;2023-04-16T14:26:02;95381.09;;;10.49;62.02
9225;BME280;4647;48.072;11.616;2023-04-16T14:28:30;95383.47;;;10.47;63.05
9225;BME280;4647;48.072;11.616;2023-04-16T14:31:02;95377.94;;;10.54;62.83
9225;BME280;4647;48.072;11.616;2023-04-16T14:33:30;95379.41;;;10.89;61.63
9225;BME280;4647;48.072;11.616;2023-04-16T14:35:59;95380.84;;;10.70;62.76
9225;BME280;4647;48.072;11.616;2023-04-16T14:43:38;95375.66;;;10.18;63.57
9225;BME280;4647;48.072;11.616;2023-04-16T14:46:36;95376.47;;;10.11;64.55
9225;BME280;4647;48.072;11.616;2023-04-16T14:49:22;95385.97;;;9.89;65.44
9225;BME280;4647;48.072;11.616;2023-04-16T15:06:21;95390.22;;;9.52;67.37
9225;BME280;4647;48.072;11.616;2023-04-16T15:08:50;95404.88;;;9.55;67.59
9225;BME280;4647;48.072;11.616;2023-04-16T15:11:19;95402.47;;;9.64;67.16
9225;BME280;4647;48.072;11.616;2023-04-16T15:13:47;95403.50;;;9.77;67.01
9225;BME280;4647;48.072;11.616;2023-04-16T15:16:18;95404.75;;;9.66;67.13
9225;BME280;4647;48.072;11.616;2023-04-16T15:18:49;95408.41;;;9.90;66.19
9225;BME280;4647;48.072;11.616;2023-04-16T15:21:17;95401.81;;;9.91;66.26
9225;BME280;4647;48.072;11.616;2023-04-16T15:23:48;95315.53;;;9.25;66.55
9225;BME280;4647;48.072;11.616;2023-04-16T15:26:18;95402.63;;;9.88;66.33
9225;BME280;4647;48.072;11.616;2023-04-16T15:28:47;95405.13;;;9.71;66.54
9225;BME280;4647;48.072;11.616;2023-04-16T15:31:15;95405.66;;;9.52;66.87
9225;BME280;4647;48.072;11.616;2023-04-16T15:33:45;95396.69;;;9.62;66.77
9225;BME280;4647;48.072;11.616;2023-04-16T15:36:13;95396.84;;;9.85;65.86
9225;BME280;4647;48.072;11.616;2023-04-16T15:38:41;95401.81;;;9.91;65.50
9225;BME280;4647;48.072;11.616;2023-04-16T15:41:12;95397.38;;;9.70;66.20
9225;BME280;4647;48.072;11.616;2023-04-16T15:43:41;95410.84;;;9.77;66.44
9225;BME280;4647;48.072;11.616;2023-04-16T15:46:10;95396.84;;;9.85;66.04
9225;BME280;4647;48.072;11.616;2023-04-16T15:48:39;95404.25;;;9.81;66.29
9225;BME280;4647;48.072;11.616;2023-04-16T15:51:07;95399.13;;;9.49;66.92
9225;BME280;4647;48.072;11.616;2023-04-16T15:53:36;95399.53;;;9.48;67.17
9225;BME280;4647;48.072;11.616;2023-04-16T15:56:04;95405.00;;;9.37;67.61
9225;BME280;4647;48.072;11.616;2023-04-16T15:58:36;95358.00;;;9.24;67.35
9225;BME280;4647;48.072;11.616;2023-04-16T16:01:04;95397.63;;;9.41;66.88
9225;BME280;4647;48.072;11.616;2023-04-16T16:03:33;95397.91;;;9.54;66.68
9225;BME280;4647;48.072;11.616;2023-04-16T16:06:01;95389.53;;;9.38;66.61
9225;BME280;4647;48.072;11.616;2023-04-16T16:08:33;95400.31;;;9.41;67.07
9225;BME280;4647;48.072;11.616;2023-04-16T16:11:03;95401.28;;;9.17;67.81
9225;BME280;4647;48.072;11.616;2023-04-16T16:13:31;95392.03;;;9.14;68.21
9225;BME280;4647;48.072;11.616;2023-04-16T16:16:04;95387.09;;;9.06;67.83
9225;BME280;4647;48.072;11.616;2023-04-16T16:18:32;95400.22;;;9.07;68.44
9225;BME280;4647;48.072;11.616;2023-04-16T16:21:01;95402.16;;;9.03;68.96
9225;BME280;4647;48.072;11.616;2023-04-16T16:23:29;95382.63;;;8.74;69.83
9225;BME280;4647;48.072;11.616;2023-04-16T16:25:58;95396.53;;;8.76;69.76
9225;BME280;4647;48.072;11.616;2023-04-16T16:28:27;95390.47;;;8.58;70.40
9225;BME280;4647;48.072;11.616;2023-04-16T16:30:55;95397.78;;;8.57;70.63
9225;BME280;4647;48.072;11.616;2023-04-16T16:33:28;95399.00;;;8.46;71.31
9225;BME280;4647;48.072;11.616;2023-04-16T16:35:57;95383.63;;;8.36;71.55
9225;BME280;4647;48.072;11.616;2023-04-16T16:38:28;95407.06;;;8.49;71.32
9225;BME280;4647;48.072;11.616;2023-04-16T16:40:56;95405.56;;;8.45;71.86
9225;BME280;4647;48.072;11.616;2023-04-16T16:43:24;95400.13;;;8.55;71.59
9225;BME280;4647;48.072;11.616;2023-04-16T16:45:53;95402.50;;;8.32;72.29
9225;BME280;4647;48.072;11.616;2023-04-16T16:48:22;95397.91;;;8.29;72.38
9225;BME280;4647;48.072;11.616;2023-04-16T16:50:53;95407.19;;;8.10;73.14
9225;BME280;4647;48.072;11.616;2023-04-16T16:53:21;95403.69;;;8.20;73.01
9225;BME280;4647;48.072;11.616;2023-04-16T16:55:50;95401.75;;;8.21;72.86
9225;BME280;4647;48.072;11.616;2023-04-16T16:58:18;95405.66;;;8.13;73.18
9225;BME280;4647;48.072;11.616;2023-04-16T17:00:47;95416.78;;;8.25;72.58
9225;BME280;4647;48.072;11.616;2023-04-16T17:03:17;95416.00;;;8.32;72.42
9225;BME280;4647;48.072;11.616;2023-04-16T17:05:46;95418.69;;;8.32;72.20
9225;BME280;4647;48.072;11.616;2023-04-16T17:08:17;95406.34;;;8.27;72.27
9225;BME280;4647;48.072;11.616;2023-04-16T17:10:45;95424.84;;;8.43;71.97
9225;BME280;4647;48.072;11.616;2023-04-16T17:13:14;95411.78;;;8.24;72.15
9225;BME280;4647;48.072;11.616;2023-04-16T17:15:44;95417.22;;;8.10;72.68
9225;BME280;4647;48.072;11.616;2023-04-16T17:18:12;95428.03;;;8.10;72.93
9225;BME280;4647;48.072;11.616;2023-04-16T17:20:41;95410.72;;;7.89;72.91
9225;BME280;4647;48.072;11.616;2023-04-16T17:23:09;95431.50;;;7.96;73.55
9225;BME280;4647;48.072;11.616;2023-04-16T17:25:41;95415.75;;;7.73;73.79
9225;BME280;4647;48.072;11.616;2023-04-16T17:28:09;95425.78;;;7.69;74.35
9225;BME280;4647;48.072;11.616;2023-04-16T17:30:38;95433.50;;;7.63;74.75
9225;BME280;4647;48.072;11.616;2023-04-16T17:33:06;95428.84;;;7.57;74.67
9225;BME280;4647;48.072;11.616;2023-04-16T17:35:35;95439.28;;;7.58;74.91
9225;BME280;4647;48.072;11.616;2023-04-16T17:38:05;95440.44;;;7.39;75.82
9225;BME280;4647;48.072;11.616;2023-04-16T17:40:33;95427.72;;;7.36;75.62
9225;BME280;4647;48.072;11.616;2023-04-16T17:43:04;95425.41;;;7.14;76.43
9225;BME280;4647;48.072;11.616;2023-04-16T17:45:32;95445.78;;;7.22;76.09
9225;BME280;4647;48.072;11.616;2023-04-16T17:48:01;95442.69;;;7.09;76.62
9225;BME280;4647;48.072;11.616;2023-04-16T17:50:29;95448.84;;;7.02;76.81
9225;BME280;4647;48.072;11.616;2023-04-16T17:52:58;95453.44;;;6.98;77.71
9225;BME280;4647;48.072;11.616;2023-04-16T17:55:33;95445.34;;;6.88;77.83
9225;BME280;4647;48.072;11.616;2023-04-16T17:58:04;95450.69;;;6.70;78.26
9225;BME280;4647;48.072;11.616;2023-04-16T18:00:33;95430.63;;;6.50;78.78
9225;BME280;4647;48.072;11.616;2023-04-16T18:03:01;95456.00;;;6.52;79.13
9225;BME280;4647;48.072;11.616;2023-04-16T18:05:30;95452.84;;;6.36;79.60
9225;BME280;4647;48.072;11.616;2023-04-16T18:07:59;95462.06;;;6.31;79.96
9225;BME280;4647;48.072;11.616;2023-04-16T18:14:09;95278.41;;;4.85;80.61
9225;BME280;4647;48.072;11.616;2023-04-16T18:16:58;95442.97;;;5.89;81.04
9225;BME280;4647;48.072;11.616;2023-04-16T18:19:43;95325.19;;;4.88;81.15
9225;BME280;4647;48.072;11.616;2023-04-16T18:25:21;95497.81;;;6.32;81.96
9225;BME280;4647;48.072;11.616;2023-04-16T18:27:50;95476.22;;;6.18;81.18
9225;BME280;4647;48.072;11.616;2023-04-16T18:30:21;95499.44;;;6.51;81.26
9225;BME280;4647;48.072;11.616;2023-04-16T18:32:49;95493.38;;;6.64;80.21
9225;BME280;4647;48.072;11.616;2023-04-16T18:35:18;95494.53;;;6.67;79.69
9225;BME280;4647;48.072;11.616;2023-04-16T18:37:46;95501.06;;;6.69;79.50
9225;BME280;4647;48.072;11.616;2023-04-16T18:40:15;95495.69;;;6.66;79.50
9225;BME280;4647;48.072;11.616;2023-04-16T18:42:43;95507.25;;;6.81;79.20
9225;BME280;4647;48.072;11.616;2023-04-16T18:45:12;95506.53;;;6.87;78.88
9225;BME280;4647;48.072;11.616;2023-04-16T18:47:43;95483.38;;;6.72;78.87
9225;BME280;4647;48.072;11.616;2023-04-16T18:50:12;95514.63;;;6.87;78.58
9225;BME280;4647;48.072;11.616;2023-04-16T18:52:40;95511.91;;;6.87;78.67
9225;BME280;4647;48.072;11.616;2023-04-16T18:55:09;95501.91;;;6.88;78.37
9225;BME280;4647;48.072;11.616;2023-04-16T18:57:37;95507.25;;;6.81;78.52
9225;BME280;4647;48.072;11.616;2023-04-16T19:00:07;95512.63;;;6.70;78.86
9225;BME280;4647;48.072;11.616;2023-04-16T19:02:37;95504.41;;;6.45;79.55
9225;BME280;4647;48.072;11.616;2023-04-16T19:05:08;95512.94;;;6.58;79.33
9225;BME280;4647;48.072;11.616;2023-04-16T19:07:37;95511.03;;;6.62;79.31
9225;BME280;4647;48.072;11.616;2023-04-16T19:10:07;95520.28;;;6.68;79.23
9225;BME280;4647;48.072;11.616;2023-04-16T19:12:36;95527.97;;;6.66;79.25
9225;BME280;4647;48.072;11.616;2023-04-16T19:15:06;95519.56;;;6.78;78.64
9225;BME280;4647;48.072;11.616;2023-04-16T19:17:34;95534.63;;;6.97;78.19
9225;BME280;4647;48.072;11.616;2023-04-16T19:20:08;95535.03;;;7.02;78.15
9225;BME280;4647;48.072;11.616;2023-04-16T19:22:38;95533.94;;;7.11;77.44
9225;BME280;4647;48.072;11.616;2023-04-16T19:25:07;95538.13;;;7.08;77.36
9225;BME280;4647;48.072;11.616;2023-04-16T19:27:35;95547.75;;;7.09;77.28
9225;BME280;4647;48.072;11.616;2023-04-16T19:30:05;95540.44;;;7.06;77.28
9225;BME280;4647;48.072;11.616;2023-04-16T19:32:34;95536.97;;;7.02;77.49
9225;BME280;4647;48.072;11.616;2023-04-16T19:35:03;95534.25;;;7.02;77.38
9225;BME280;4647;48.072;11.616;2023-04-16T19:37:34;95529.25;;;6.97;77.54
9225;BME280;4647;48.072;11.616;2023-04-16T19:40:03;95534.56;;;6.83;77.89
9225;BME280;4647;48.072;11.616;2023-04-16T19:42:31;95537.25;;;6.75;78.23
9225;BME280;4647;48.072;11.616;2023-04-16T19:45:00;95535.63;;;6.60;78.83
9225;BME280;4647;48.072;11.616;2023-04-16T19:47:28;95537.22;;;6.65;78.99
9225;BME280;4647;48.072;11.616;2023-04-16T19:49:57;95545.28;;;6.65;79.37
9225;BME280;4647;48.072;11.616;2023-04-16T19:52:25;95541.84;;;6.68;79.31
9225;BME280;4647;48.072;11.616;2023-04-16T19:54:56;95542.25;;;6.73;79.04
9225;BME280;4647;48.072;11.616;2023-04-16T19:57:25;95543.03;;;6.77;78.61
9225;BME280;4647;48.072;11.616;2023-04-16T19:59:53;95508.69;;;6.60;78.73
9225;BME280;4647;48.072;11.616;2023-04-16T20:02:21;95540.31;;;6.77;78.75
9225;BME280;4647;48.072;11.616;2023-04-16T20:04:50;95544.94;;;6.73;78.91
9225;BME280;4647;48.072;11.616;2023-04-16T20:07:21;95544.94;;;6.81;78.49
9225;BME280;4647;48.072;11.616;2023-04-16T20:09:49;95548.81;;;6.80;78.43
9225;BME280;4647;48.072;11.616;2023-04-16T20:12:20;95545.69;;;6.74;78.55
9225;BME280;4647;48.072;11.616;2023-04-16T20:14:49;95548.78;;;6.76;78.45
9225;BME280;4647;48.072;11.616;2023-04-16T20:17:17;95531.78;;;6.58;78.58
9225;BME280;4647;48.072;11.616;2023-04-16T20:19:45;95533.28;;;6.55;79.15
9225;BME280;4647;48.072;11.616;2023-04-16T20:22:15;95525.16;;;6.41;79.44